createdAt,value
2019-05-01T00:01:27.045Z,44.49
2019-05-01T00:04:00.999Z,44.08
2019-05-01T00:06:34.875Z,43.78
2019-05-01T00:09:12.409Z,44.08
2019-05-01T00:11:46.450Z,44.06
2019-05-01T00:14:20.037Z,43.12
2019-05-01T00:16:54.346Z,43.55
2019-05-01T00:19:28.339Z,43.93
2019-05-01T00:22:04.045Z,42.85
2019-05-01T00:24:38.411Z,43.48
2019-05-01T00:27:12.156Z,42.83
2019-05-01T00:29:46.154Z,43.15
2019-05-01T00:32:19.954Z,43.02
2019-05-01T00:34:55.540Z,42.69
2019-05-01T00:37:29.317Z,42.47
2019-05-01T00:40:04.299Z,42.39
2019-05-01T00:42:37.740Z,42.73
2019-05-01T00:45:11.707Z,42.58
2019-05-01T00:47:45.298Z,41.72
2019-05-01T00:50:21.233Z,41.90
2019-05-01T00:52:54.923Z,41.12
2019-05-01T00:55:37.761Z,41.61
2019-05-01T00:58:12.441Z,41.27
2019-05-01T01:00:49.979Z,41.55
2019-05-01T01:03:23.757Z,40.69
2019-05-01T01:05:57.571Z,40.62
2019-05-01T01:08:33.040Z,40.69
2019-05-01T01:11:07.107Z,41.12
2019-05-01T01:13:40.833Z,41.09
2019-05-01T01:16:14.765Z,39.64
2019-05-01T01:18:48.804Z,39.36
2019-05-01T01:21:22.718Z,40.06
2019-05-01T01:23:56.830Z,39.66
2019-05-01T01:26:31.919Z,40.04
2019-05-01T01:29:06.757Z,38.82
2019-05-01T01:31:40.489Z,38.80
2019-05-01T01:34:14.604Z,39.09
2019-05-01T01:36:48.319Z,39.76
2019-05-01T01:39:22.794Z,39.76
2019-05-01T01:41:57.339Z,38.03
2019-05-01T01:44:31.596Z,38.31
2019-05-01T01:47:06.896Z,38.57
2019-05-01T01:49:49.934Z,38.45
2019-05-01T01:52:24.417Z,38.33
2019-05-01T01:54:59.375Z,37.94
2019-05-01T01:57:33.030Z,37.34
2019-05-01T02:00:08.072Z,37.17
2019-05-01T03:19:13.325Z,22.41
2019-05-01T03:21:53.178Z,22.17
2019-05-01T03:24:33.390Z,22.35
2019-05-01T03:27:11.573Z,22.63
2019-05-01T03:29:46.164Z,22.30
2019-05-01T03:32:27.715Z,21.33
2019-05-01T03:35:04.982Z,21.41
2019-05-01T03:37:39.432Z,22.39
2019-05-01T03:40:14.562Z,21.40
2019-05-01T03:42:48.545Z,21.57
2019-05-01T03:45:25.285Z,21.20
2019-05-01T03:47:59.640Z,20.67
2019-05-01T03:50:33.554Z,20.72
2019-05-01T03:53:07.631Z,20.07
2019-05-01T03:55:41.386Z,20.50
2019-05-01T03:58:16.904Z,20.45
2019-05-01T04:00:53.115Z,19.15
2019-05-01T04:03:26.918Z,19.18
2019-05-01T04:06:00.960Z,18.60
2019-05-01T04:08:34.907Z,18.94
2019-05-01T04:11:08.698Z,18.94
2019-05-01T04:13:42.606Z,19.12
2019-05-01T04:16:16.440Z,19.39
2019-05-01T04:18:50.216Z,19.05
2019-05-01T04:21:24.325Z,19.18
2019-05-01T04:24:00.523Z,19.20
2019-05-01T04:26:34.264Z,19.36
2019-05-01T04:29:08.292Z,19.21
2019-05-01T04:31:42.746Z,18.47
2019-05-01T04:34:16.689Z,19.87
2019-05-01T04:36:51.855Z,19.52
2019-05-01T04:39:27.904Z,19.33
2019-05-01T04:42:01.555Z,19.63
2019-05-01T04:44:35.556Z,18.75
2019-05-01T04:47:09.421Z,19.23
2019-05-01T04:49:43.835Z,19.24
2019-05-01T04:52:18.057Z,17.88
2019-05-01T04:54:52.111Z,17.58
2019-05-01T04:57:29.933Z,17.36
2019-05-01T05:00:04.363Z,16.93
2019-05-01T05:02:39.036Z,16.66
2019-05-01T05:05:13.493Z,16.15
2019-05-01T05:07:47.655Z,15.97
2019-05-01T05:10:21.784Z,16.04
2019-05-01T05:12:56.416Z,16.73
2019-05-01T05:15:30.909Z,16.05
2019-05-01T05:18:05.263Z,17.04
2019-05-01T05:20:39.482Z,15.48
2019-05-01T05:23:14.567Z,15.88
2019-05-01T05:25:51.570Z,15.81
2019-05-01T05:28:27.132Z,16.35
2019-05-01T05:31:02.678Z,15.58
2019-05-01T05:33:40.732Z,15.39
2019-05-01T05:36:19.453Z,15.27
2019-05-01T05:38:54.834Z,15.16
2019-05-01T05:41:30.013Z,14.99
2019-05-01T05:44:04.367Z,14.01
2019-05-01T05:46:38.920Z,14.64
2019-05-01T05:49:12.920Z,15.54
2019-05-01T05:51:48.583Z,15.82
2019-05-01T05:54:24.854Z,15.62
2019-05-01T05:57:01.150Z,15.69
2019-05-01T05:59:37.076Z,15.15
2019-05-01T06:02:13.766Z,15.17
2019-05-01T06:04:49.659Z,15.09
2019-05-01T06:07:27.096Z,16.02
2019-05-01T06:10:03.757Z,15.92
2019-05-01T06:12:41.754Z,15.78
2019-05-01T06:15:17.047Z,16.05
2019-05-01T06:17:51.549Z,15.99
2019-05-01T06:20:25.867Z,16.24
2019-05-01T06:23:02.020Z,16.40
2019-05-01T06:25:37.461Z,16.09
2019-05-01T06:28:11.849Z,16.83
2019-05-01T06:30:48.859Z,17.20
2019-05-01T06:33:22.113Z,17.52
2019-05-01T06:35:56.094Z,18.27
2019-05-01T06:38:31.480Z,17.79
2019-05-01T06:41:05.045Z,17.83
2019-05-01T06:43:40.077Z,18.07
2019-05-01T06:46:14.005Z,18.72
2019-05-01T06:48:53.437Z,18.40
2019-05-01T06:51:27.659Z,17.61
2019-05-01T06:54:01.671Z,18.16
2019-05-01T06:56:39.818Z,18.20
2019-05-01T06:59:15.821Z,18.38
2019-05-01T07:01:58.031Z,18.08
2019-05-01T07:04:32.188Z,17.73
2019-05-01T07:07:06.654Z,18.08
2019-05-01T07:09:44.088Z,17.39
2019-05-01T07:12:18.539Z,17.39
2019-05-01T07:14:53.225Z,17.40
2019-05-01T07:17:27.035Z,17.80
2019-05-01T07:20:01.355Z,17.73
2019-05-01T07:22:37.163Z,18.47
2019-05-01T07:25:12.423Z,18.33
2019-05-01T07:27:48.183Z,18.04
2019-05-01T07:30:24.466Z,18.04
2019-05-01T07:32:58.930Z,19.22
2019-05-01T07:35:36.842Z,18.24
2019-05-01T07:38:12.238Z,18.07
2019-05-01T07:40:46.342Z,17.45
2019-05-01T07:43:23.954Z,17.94
2019-05-01T07:45:56.919Z,18.52
2019-05-01T07:48:41.093Z,18.04
2019-05-01T07:51:14.044Z,17.95
2019-05-01T07:53:49.996Z,18.15
2019-05-01T07:56:28.017Z,17.80
2019-05-01T07:59:01.228Z,17.78
2019-05-01T08:01:37.936Z,18.19
2019-05-01T08:04:13.751Z,17.95
2019-05-01T08:06:51.944Z,18.15
2019-05-01T08:09:22.995Z,18.12
2019-05-01T08:11:56.758Z,18.08
2019-05-01T08:14:30.539Z,17.97
2019-05-01T08:17:04.554Z,18.52
2019-05-01T08:19:39.459Z,18.55
2019-05-01T08:22:13.409Z,18.50
2019-05-01T08:24:47.014Z,18.45
2019-05-01T08:27:21.391Z,18.36
2019-05-01T08:29:54.950Z,18.55
2019-05-01T08:32:28.777Z,18.91
2019-05-01T08:35:03.466Z,18.74
2019-05-01T08:37:37.344Z,18.82
2019-05-01T08:40:15.823Z,19.18
2019-05-01T08:42:47.641Z,19.21
2019-05-01T08:45:22.276Z,18.75
2019-05-01T08:48:00.383Z,19.09
2019-05-01T08:50:32.592Z,19.48
2019-05-01T08:53:06.306Z,19.17
2019-05-01T08:55:44.915Z,19.81
2019-05-01T08:58:15.939Z,19.58
2019-05-01T09:00:51.103Z,19.41
2019-05-01T09:03:25.236Z,19.15
2019-05-01T09:05:59.050Z,19.79
2019-05-01T09:08:33.346Z,19.92
2019-05-01T09:11:07.455Z,20.18
2019-05-01T09:13:41.768Z,20.30
2019-05-01T09:16:19.167Z,20.47
2019-05-01T09:18:53.801Z,20.29
2019-05-01T09:21:27.731Z,21.11
2019-05-01T09:24:01.778Z,20.71
2019-05-01T09:26:35.865Z,20.24
2019-05-01T09:29:11.024Z,21.17
2019-05-01T09:31:44.928Z,20.67
2019-05-01T09:34:21.009Z,21.04
2019-05-01T09:36:55.010Z,21.03
2019-05-01T09:39:29.015Z,22.02
2019-05-01T09:42:02.997Z,21.14
2019-05-01T09:44:37.870Z,21.73
2019-05-01T09:47:12.384Z,21.85
2019-05-01T09:49:48.654Z,21.18
2019-05-01T09:52:23.450Z,21.86
2019-05-01T09:54:57.664Z,21.53
2019-05-01T09:57:31.782Z,21.44
2019-05-01T10:00:06.865Z,21.52
2019-05-01T10:02:42.183Z,21.83
2019-05-01T10:05:28.222Z,22.33
2019-05-01T10:07:50.704Z,21.82
2019-05-01T10:10:28.941Z,22.70
2019-05-01T10:12:59.806Z,21.75
2019-05-01T10:15:33.444Z,22.31
2019-05-01T10:18:07.593Z,22.24
2019-05-01T10:20:42.364Z,22.27
2019-05-01T10:23:17.319Z,22.25
2019-05-01T10:25:51.252Z,21.98
2019-05-01T10:28:25.191Z,21.91
2019-05-01T10:30:59.176Z,22.28
2019-05-01T10:33:33.821Z,22.59
2019-05-01T10:36:08.023Z,22.16
2019-05-01T10:38:45.124Z,22.03
2019-05-01T10:41:19.647Z,22.52
2019-05-01T10:43:53.464Z,22.89
2019-05-01T10:46:27.049Z,22.64
2019-05-01T10:49:01.044Z,22.54
2019-05-01T10:51:35.977Z,22.64
2019-05-01T10:54:09.587Z,22.75
2019-05-01T10:56:44.478Z,22.93
2019-05-01T10:59:23.543Z,23.31
2019-05-01T11:01:59.410Z,22.88
2019-05-01T11:04:34.802Z,23.67
2019-05-01T11:07:10.248Z,23.20
2019-05-01T11:09:44.220Z,23.27
2019-05-01T11:12:17.805Z,23.27
2019-05-01T11:14:51.447Z,23.86
2019-05-01T11:17:25.296Z,23.30
2019-05-01T11:20:01.852Z,24.41
2019-05-01T11:22:35.863Z,24.23
2019-05-01T11:25:10.862Z,25.75
2019-05-01T11:27:44.709Z,26.09
2019-05-01T11:30:18.734Z,26.99
2019-05-01T11:32:52.476Z,28.03
2019-05-01T11:35:25.986Z,27.28
2019-05-01T11:38:00.052Z,28.05
2019-05-01T11:40:33.791Z,29.51
2019-05-01T11:43:07.708Z,29.27
2019-05-01T11:45:41.383Z,29.54
2019-05-01T11:48:15.659Z,29.96
2019-05-01T11:50:51.088Z,30.44
2019-05-01T11:53:26.312Z,30.07
2019-05-01T11:56:00.600Z,30.23
2019-05-01T11:58:34.648Z,29.36
2019-05-01T12:01:08.475Z,31.66
2019-05-01T12:03:53.969Z,31.08
2019-05-01T12:06:27.875Z,30.51
2019-05-01T12:09:01.846Z,31.61
2019-05-01T12:11:35.672Z,31.79
2019-05-01T12:14:10.617Z,31.40
2019-05-01T12:16:44.279Z,31.99
2019-05-01T12:19:19.149Z,31.80
2019-05-01T12:21:54.904Z,32.97
2019-05-01T12:24:28.557Z,32.93
2019-05-01T12:27:02.304Z,32.21
2019-05-01T12:29:36.156Z,32.06
2019-05-01T12:32:10.358Z,32.62
2019-05-01T12:34:44.157Z,33.18
2019-05-01T12:37:17.981Z,33.21
2019-05-01T12:39:54.089Z,33.91
2019-05-01T12:42:28.370Z,34.11
2019-05-01T12:45:02.252Z,35.15
2019-05-01T12:47:38.075Z,34.02
2019-05-01T12:50:12.240Z,33.84
2019-05-01T12:52:46.099Z,34.19
2019-05-01T12:55:19.912Z,34.30
2019-05-01T12:57:53.795Z,34.87
2019-05-01T13:00:47.029Z,35.47
2019-05-01T13:03:27.101Z,34.70
2019-05-01T13:06:01.073Z,34.12
2019-05-01T13:08:34.669Z,35.20
2019-05-01T13:11:09.808Z,37.15
2019-05-01T13:13:44.817Z,35.67
2019-05-01T13:16:18.711Z,36.64
2019-05-01T13:18:52.250Z,36.09
2019-05-01T13:21:26.098Z,35.78
2019-05-01T13:23:59.841Z,37.32
2019-05-01T13:26:34.364Z,35.75
2019-05-01T13:29:09.510Z,35.36
2019-05-01T13:31:44.728Z,36.18
2019-05-01T13:34:18.409Z,36.74
2019-05-01T13:37:02.348Z,36.99
2019-05-01T13:39:27.005Z,38.02
2019-05-01T13:42:01.100Z,38.60
2019-05-01T13:44:34.876Z,38.72
2019-05-01T13:47:10.124Z,39.33
2019-05-01T13:49:45.317Z,39.78
2019-05-01T13:52:20.697Z,39.22
2019-05-01T13:54:54.437Z,40.15
2019-05-01T13:57:28.016Z,38.97
2019-05-01T14:00:02.061Z,39.48
2019-05-01T14:02:36.005Z,40.50
2019-05-01T14:05:12.928Z,40.05
2019-05-01T14:07:46.842Z,39.43
2019-05-01T14:10:22.083Z,40.09
2019-05-01T14:12:56.321Z,39.16
2019-05-01T14:15:30.341Z,40.11
2019-05-01T14:18:04.064Z,41.23
2019-05-01T14:20:38.572Z,41.78
2019-05-01T14:23:13.800Z,41.27
2019-05-01T14:25:47.658Z,40.63
2019-05-01T14:28:21.276Z,40.74
2019-05-01T14:30:55.089Z,40.60
2019-05-01T14:33:28.966Z,40.73
2019-05-01T14:36:02.659Z,40.19
2019-05-01T14:38:36.723Z,40.88
2019-05-01T14:41:10.899Z,39.89
2019-05-01T14:43:45.928Z,40.67
2019-05-01T14:46:21.505Z,39.35
2019-05-01T14:48:56.821Z,40.41
2019-05-01T14:51:30.943Z,40.01
2019-05-01T14:54:04.809Z,40.47
2019-05-01T14:56:38.595Z,40.79
2019-05-01T14:59:12.256Z,41.57
2019-05-01T15:01:47.139Z,39.50
2019-05-01T15:04:20.525Z,41.48
2019-05-01T15:06:54.355Z,41.01
2019-05-01T15:09:29.013Z,40.20
2019-05-01T15:12:02.703Z,41.07
2019-05-01T15:14:36.196Z,40.31
2019-05-01T15:17:11.173Z,40.30
2019-05-01T15:19:44.502Z,40.10
2019-05-01T15:22:18.366Z,39.60
2019-05-01T15:24:52.247Z,39.67
2019-05-01T15:27:26.063Z,38.73
2019-05-01T15:29:59.917Z,39.19
2019-05-01T15:32:33.683Z,37.35
2019-05-01T15:35:08.136Z,38.57
2019-05-01T15:37:41.821Z,38.35
2019-05-01T15:40:15.821Z,40.08
2019-05-01T15:42:51.225Z,40.68
2019-05-01T15:45:25.122Z,41.15
2019-05-01T15:47:58.955Z,41.60
2019-05-01T15:50:33.980Z,41.66
2019-05-01T15:53:09.436Z,40.72
2019-05-01T15:55:47.453Z,40.04
2019-05-01T15:58:21.055Z,40.87
2019-05-01T16:00:56.186Z,40.59
2019-05-01T16:03:29.923Z,40.05
2019-05-01T16:06:03.527Z,41.44
2019-05-01T16:08:38.869Z,40.59
2019-05-01T16:11:14.588Z,40.55
2019-05-01T16:13:50.012Z,41.29
2019-05-01T16:16:23.849Z,41.75
2019-05-01T16:18:57.912Z,40.64
2019-05-01T16:21:32.060Z,39.97
2019-05-01T16:24:06.236Z,39.97
2019-05-01T16:26:39.881Z,40.21
2019-05-01T16:29:14.709Z,40.16
2019-05-01T16:31:48.093Z,41.04
2019-05-01T16:34:21.914Z,41.69
2019-05-01T16:36:55.479Z,41.15
2019-05-01T16:39:29.138Z,41.93
2019-05-01T16:42:02.812Z,42.87
2019-05-01T16:44:36.604Z,42.10
2019-05-01T16:47:10.283Z,41.92
2019-05-01T16:49:44.595Z,42.59
2019-05-01T16:52:18.720Z,42.93
2019-05-01T16:54:59.376Z,43.19
2019-05-01T16:57:28.801Z,42.56
2019-05-01T17:00:02.451Z,44.04
2019-05-01T17:02:36.307Z,42.78
2019-05-01T17:05:10.448Z,42.73
2019-05-01T17:07:46.720Z,42.35
2019-05-01T17:10:20.797Z,42.71
2019-05-01T17:12:54.409Z,43.28
2019-05-01T17:15:28.129Z,42.74
2019-05-01T17:18:03.560Z,44.58
2019-05-01T17:20:37.513Z,43.70
2019-05-01T17:23:11.107Z,43.70
2019-05-01T17:25:44.624Z,44.24
2019-05-01T17:28:18.583Z,45.52
2019-05-01T17:30:52.371Z,44.09
2019-05-01T17:33:26.169Z,44.17
2019-05-01T17:35:59.854Z,43.57
2019-05-01T17:38:34.817Z,45.21
2019-05-01T17:41:10.618Z,43.98
2019-05-01T17:43:49.245Z,43.75
2019-05-01T17:46:20.149Z,44.53
2019-05-01T17:48:55.493Z,44.45
2019-05-01T17:51:30.907Z,43.31
2019-05-01T17:54:04.935Z,41.90
2019-05-01T17:56:38.583Z,40.73
2019-05-01T17:59:12.224Z,40.33
2019-05-01T18:01:46.147Z,41.00
2019-05-01T18:04:19.816Z,40.48
2019-05-01T18:06:54.465Z,39.58
2019-05-01T18:09:28.131Z,37.20
2019-05-01T18:12:02.019Z,39.41
2019-05-01T18:14:36.952Z,39.71
2019-05-01T18:17:11.077Z,39.34
2019-05-01T18:19:45.080Z,40.34
2019-05-01T18:22:19.152Z,40.66
2019-05-01T18:24:53.876Z,39.06
2019-05-01T18:27:27.635Z,38.10
2019-05-01T18:30:01.092Z,39.10
2019-05-01T18:32:36.340Z,39.00
2019-05-01T18:35:14.047Z,38.73
2019-05-01T18:37:45.385Z,37.90
2019-05-01T18:40:19.164Z,37.43
2019-05-01T18:42:52.923Z,37.74
2019-05-01T18:45:54.298Z,36.96
2019-05-01T18:48:29.677Z,36.48
2019-05-01T18:51:04.356Z,35.88
2019-05-01T18:53:38.350Z,36.66
2019-05-01T18:56:11.730Z,36.69
2019-05-01T18:58:46.626Z,34.86
2019-05-01T19:01:20.427Z,35.13
2019-05-01T19:03:54.258Z,33.97
2019-05-01T19:06:40.383Z,35.13
2019-05-01T19:09:14.225Z,32.99
2019-05-01T19:11:37.915Z,32.58
2019-05-01T19:14:11.862Z,31.37
2019-05-01T19:16:47.120Z,32.65
2019-05-01T19:19:21.162Z,29.87
2019-05-01T19:21:55.054Z,30.02
2019-05-01T19:24:32.506Z,30.80
2019-05-01T19:27:04.550Z,31.43
2019-05-01T19:29:38.473Z,30.22
2019-05-01T19:32:11.921Z,29.67
2019-05-01T19:34:45.732Z,29.77
2019-05-01T19:37:21.871Z,30.49
2019-05-01T19:39:55.175Z,29.86
2019-05-01T19:42:29.075Z,29.59
2019-05-01T19:45:03.365Z,30.02
2019-05-01T19:47:37.164Z,29.54
2019-05-01T19:50:10.866Z,28.77
2019-05-01T19:52:44.435Z,28.94
2019-05-01T19:55:17.979Z,30.35
2019-05-01T19:57:51.571Z,30.49
2019-05-01T20:00:53.507Z,30.04
2019-05-01T20:03:30.623Z,31.04
2019-05-01T20:06:06.174Z,29.79
2019-05-01T20:08:40.258Z,29.62
2019-05-01T20:11:15.287Z,29.36
2019-05-01T20:13:49.011Z,29.48
2019-05-01T20:16:22.643Z,29.29
2019-05-01T20:18:56.161Z,30.12
2019-05-01T20:21:29.867Z,29.79
2019-05-01T20:24:04.256Z,29.39
2019-05-01T20:26:38.330Z,29.53
2019-05-01T20:29:12.393Z,28.82
2019-05-01T20:31:50.839Z,29.61
2019-05-01T20:34:22.416Z,29.81
2019-05-01T20:36:56.068Z,30.12
2019-05-01T20:39:29.531Z,29.13
2019-05-01T20:42:03.359Z,29.67
2019-05-01T20:44:37.143Z,29.77
2019-05-01T20:47:10.967Z,29.44
2019-05-01T20:49:44.698Z,29.24
2019-05-01T20:52:18.568Z,29.63
2019-05-01T20:54:52.293Z,29.34
2019-05-01T20:57:25.774Z,29.95
2019-05-01T20:59:59.714Z,29.70
2019-05-01T21:02:33.446Z,29.70
2019-05-01T21:05:07.632Z,29.84
2019-05-01T21:07:41.193Z,29.70
2019-05-01T21:10:24.578Z,30.27
2019-05-01T21:12:49.877Z,29.84
2019-05-01T21:15:24.913Z,29.75
2019-05-01T21:17:59.822Z,30.32
2019-05-01T21:20:33.921Z,30.19
2019-05-01T21:23:11.652Z,30.34
2019-05-01T21:25:54.956Z,30.31
2019-05-01T21:28:29.994Z,30.58
2019-05-01T21:31:04.080Z,30.76
2019-05-01T21:33:40.798Z,31.05
2019-05-01T21:36:14.802Z,31.34
2019-05-01T21:38:48.471Z,31.44
2019-05-01T21:41:22.473Z,31.71
2019-05-01T21:43:56.053Z,31.47
2019-05-01T21:46:30.167Z,31.79
2019-05-01T21:49:03.664Z,32.03
2019-05-01T21:51:41.512Z,31.79
2019-05-01T21:54:16.053Z,31.98
2019-05-01T21:56:48.942Z,32.53
2019-05-01T21:59:22.869Z,32.14
2019-05-01T22:01:56.776Z,32.43
2019-05-01T22:04:32.002Z,32.40
2019-05-01T22:07:05.936Z,32.22
2019-05-01T22:09:39.595Z,32.54
2019-05-01T22:12:14.448Z,32.44
2019-05-01T22:14:48.629Z,32.29
2019-05-01T22:17:22.542Z,32.55
2019-05-01T22:19:56.199Z,32.37
2019-05-01T22:22:29.946Z,33.18
2019-05-01T22:25:03.814Z,33.18
2019-05-01T22:27:39.137Z,32.71
2019-05-01T22:30:14.074Z,32.04
2019-05-01T22:32:47.644Z,32.20
2019-05-01T22:35:21.356Z,32.62
2019-05-01T22:37:55.030Z,32.07
2019-05-01T22:40:28.735Z,32.42
2019-05-01T22:43:02.476Z,32.47
2019-05-01T22:45:36.223Z,32.22
2019-05-01T22:48:09.938Z,32.58
2019-05-01T22:50:44.228Z,33.18
2019-05-01T22:53:18.318Z,32.13
2019-05-01T22:55:52.117Z,32.43
2019-05-01T22:58:25.774Z,32.04
2019-05-01T23:01:00.602Z,32.43
2019-05-01T23:03:40.533Z,32.38
2019-05-01T23:06:09.686Z,31.55
2019-05-01T23:08:43.578Z,31.08
2019-05-01T23:11:20.053Z,31.08
2019-05-01T23:13:52.472Z,31.29
2019-05-01T23:16:28.742Z,31.92
2019-05-01T23:19:00.952Z,31.22
2019-05-01T23:21:34.704Z,30.81
2019-05-01T23:24:08.370Z,30.47
2019-05-01T23:26:42.016Z,30.31
2019-05-01T23:29:15.624Z,29.67
2019-05-01T23:31:49.296Z,30.21
2019-05-01T23:34:27.904Z,29.45
2019-05-01T23:37:01.348Z,29.04
2019-05-01T23:39:40.441Z,29.49
2019-05-01T23:42:09.966Z,28.93
2019-05-01T23:44:44.996Z,28.25
2019-05-01T23:47:18.776Z,28.33
2019-05-01T23:49:53.698Z,28.51
2019-05-01T23:52:27.488Z,28.31
2019-05-01T23:55:00.912Z,27.92
2019-05-01T23:57:35.997Z,28.13
